Time;durP1;ratioP1;P1;durP2;ratioP2;P2;SDS_P1;SDS_P2;PMS_P1;PMS_P2;Temp;Humidity;BMP_temperature;BMP_pressure;BME280_temperature;BME280_humidity;BME280_pressure;Samples;Min_cycle;Max_cycle;Signal;HPM_P1;HPM_P2
2023/06/19 00:00:35;;;;;;;13.23;7.78;;;22.60;59.50;;;;;;5085321;28;20029;-58
2023/06/19 00:03:00;;;;;;;16.23;8.30;;;22.70;59.50;;;;;;5084583;28;20040;-56
2023/06/19 00:05:26;;;;;;;16.25;7.88;;;22.70;59.70;;;;;;5083858;28;20021;-58
2023/06/19 00:07:52;;;;;;;14.57;7.72;;;22.70;60.00;;;;;;5084556;28;20017;-59
2023/06/19 00:10:18;;;;;;;16.95;7.78;;;22.70;59.70;;;;;;5084360;28;20485;-59
2023/06/19 00:12:45;;;;;;;11.07;7.10;;;22.70;59.60;;;;;;5084243;28;20103;-59
2023/06/19 00:15:11;;;;;;;13.85;7.10;;;22.70;59.70;;;;;;5083599;28;20440;-59
2023/06/19 00:17:37;;;;;;;12.88;7.47;;;22.70;59.60;;;;;;5084517;28;20392;-59
2023/06/19 00:20:06;;;;;;;15.52;8.40;;;22.70;59.50;;;;;;5084309;28;20219;-58
2023/06/19 00:22:32;;;;;;;10.55;7.82;;;22.70;59.60;;;;;;5083988;28;20115;-59
2023/06/19 00:24:58;;;;;;;16.95;7.50;;;22.70;59.70;;;;;;5083646;28;20154;-59
2023/06/19 00:27:24;;;;;;;11.13;7.38;;;22.70;59.50;;;;;;5084054;28;20031;-54
2023/06/19 00:29:52;;;;;;;9.48;6.85;;;22.80;59.60;;;;;;5082772;28;20097;-58
2023/06/19 00:32:18;;;;;;;8.75;6.88;;;22.80;59.50;;;;;;5082713;28;20032;-58
2023/06/19 00:34:44;;;;;;;9.57;6.65;;;22.80;59.70;;;;;;5083330;28;20047;-59
2023/06/19 00:37:13;;;;;;;10.10;7.25;;;22.80;59.70;;;;;;5071133;28;20032;-58
2023/06/19 00:39:40;;;;;;;9.45;6.78;;;22.80;59.60;;;;;;5070061;28;20082;-55
2023/06/19 00:42:06;;;;;;;9.88;6.88;;;22.80;59.60;;;;;;5085734;28;20044;-57
2023/06/19 00:44:32;;;;;;;10.73;7.10;;;22.80;59.50;;;;;;5069682;28;20111;-58
2023/06/19 00:47:02;;;;;;;9.45;6.80;;;22.80;59.60;;;;;;5070009;28;20024;-58
2023/06/19 00:49:29;;;;;;;10.32;6.78;;;22.80;59.60;;;;;;5085510;28;20024;-58
2023/06/19 00:51:55;;;;;;;9.65;7.10;;;22.80;59.60;;;;;;5070086;28;20024;-57
2023/06/19 00:54:21;;;;;;;11.13;6.53;;;22.80;59.70;;;;;;5069370;28;20035;-58
2023/06/19 00:56:48;;;;;;;11.68;7.00;;;22.80;59.60;;;;;;5095577;22;20135;-56
2023/06/19 00:59:20;;;;;;;11.35;7.18;;;22.80;59.70;;;;;;5049538;28;20033;-56
2023/06/19 01:01:47;;;;;;;10.90;7.05;;;22.80;59.90;;;;;;5067087;28;20036;-58
2023/06/19 01:04:13;;;;;;;9.23;6.35;;;22.70;59.70;;;;;;5068551;28;20037;-59
2023/06/19 01:07:09;;;;;;;10.95;6.53;;;22.80;59.70;;;;;;5052118;28;20037;-58
2023/06/19 01:09:46;;;;;;;9.45;5.80;;;22.80;59.70;;;;;;5052784;28;20070;-57
2023/06/19 01:12:37;;;;;;;9.15;6.60;;;22.80;59.80;;;;;;5066546;28;20103;-58
2023/06/19 01:15:05;;;;;;;9.23;6.90;;;22.80;59.90;;;;;;5060466;28;20040;-53
2023/06/19 01:17:32;;;;;;;13.02;6.60;;;22.80;59.90;;;;;;5069993;28;20041;-58
2023/06/19 01:20:00;;;;;;;17.27;6.85;;;22.80;59.90;;;;;;5072360;28;20032;-58
2023/06/19 01:22:30;;;;;;;10.60;6.20;;;22.80;60.20;;;;;;5073348;28;20024;-57
2023/06/19 01:24:58;;;;;;;9.13;6.13;;;22.80;60.00;;;;;;5073121;28;20024;-59
2023/06/19 01:27:25;;;;;;;12.05;6.07;;;22.80;59.90;;;;;;5073331;28;20070;-59
2023/06/19 01:29:53;;;;;;;10.32;6.43;;;22.80;59.80;;;;;;5072161;28;20031;-59
2023/06/19 01:32:31;;;;;;;13.82;6.82;;;22.80;60.30;;;;;;5073190;28;20081;-56
2023/06/19 01:34:59;;;;;;;9.65;6.55;;;22.80;59.80;;;;;;5073013;28;20387;-58
2023/06/19 01:37:27;;;;;;;12.80;6.60;;;22.80;60.30;;;;;;5072944;28;20060;-58
2023/06/19 01:39:57;;;;;;;10.85;6.50;;;22.80;59.70;;;;;;5073116;28;20024;-57
2023/06/19 01:42:24;;;;;;;15.05;6.53;;;22.80;59.70;;;;;;5073590;28;20032;-58
2023/06/19 01:44:50;;;;;;;10.27;6.65;;;22.80;59.70;;;;;;5072725;28;20032;-56
2023/06/19 01:47:19;;;;;;;8.18;5.70;;;22.80;59.80;;;;;;5072151;28;20071;-55
2023/06/19 01:49:49;;;;;;;10.63;5.65;;;22.80;59.70;;;;;;5073084;28;20078;-57
2023/06/19 01:52:15;;;;;;;9.18;6.22;;;22.80;59.80;;;;;;5072867;28;20119;-58
2023/06/19 01:54:41;;;;;;;7.80;5.72;;;22.80;59.80;;;;;;5054709;28;20415;-58
2023/06/19 01:57:07;;;;;;;7.55;5.65;;;22.80;59.90;;;;;;5072564;28;20028;-58
2023/06/19 01:59:33;;;;;;;10.05;6.55;;;22.80;59.80;;;;;;5054761;28;20044;-58
2023/06/19 02:01:59;;;;;;;6.35;5.28;;;22.70;59.60;;;;;;5071536;28;20024;-58
2023/06/19 02:04:25;;;;;;;9.90;5.80;;;22.70;59.70;;;;;;5072290;28;20488;-57
2023/06/19 02:06:51;;;;;;;9.20;6.32;;;22.70;59.80;;;;;;5072573;28;20078;-58
2023/06/19 02:09:16;;;;;;;8.20;6.03;;;22.80;60.40;;;;;;5072532;28;20021;-58
2023/06/19 02:11:42;;;;;;;8.70;6.35;;;22.70;59.80;;;;;;5072552;28;20035;-59
2023/06/19 02:14:11;;;;;;;8.90;5.88;;;22.70;59.80;;;;;;5072392;28;20039;-58
2023/06/19 02:16:37;;;;;;;8.27;5.93;;;22.70;59.80;;;;;;5054178;28;20680;-56
2023/06/19 02:19:02;;;;;;;9.07;6.57;;;22.70;59.80;;;;;;5054409;28;20029;-58
2023/06/19 02:21:28;;;;;;;8.80;6.35;;;22.70;60.30;;;;;;5072312;28;20025;-58
2023/06/19 02:23:54;;;;;;;9.38;5.93;;;22.70;59.80;;;;;;5054413;28;20020;-57
2023/06/19 02:26:20;;;;;;;9.65;6.30;;;22.70;59.80;;;;;;5072006;28;20029;-58
2023/06/19 02:28:46;;;;;;;8.88;6.43;;;22.70;59.80;;;;;;5072068;28;20035;-59
2023/06/19 02:31:12;;;;;;;8.13;5.93;;;22.70;59.80;;;;;;5054290;28;20103;-57
2023/06/19 02:33:38;;;;;;;9.60;6.40;;;22.70;59.80;;;;;;5072014;28;20024;-59
2023/06/19 02:36:04;;;;;;;10.73;5.78;;;22.70;59.80;;;;;;5070315;28;20025;-56
2023/06/19 02:38:30;;;;;;;10.02;6.57;;;22.70;59.80;;;;;;5072047;28;20040;-58
2023/06/19 02:40:57;;;;;;;7.85;5.80;;;22.70;59.80;;;;;;5072046;28;20438;-57
2023/06/19 02:43:23;;;;;;;9.82;6.70;;;22.70;59.80;;;;;;5071876;28;20035;-59
2023/06/19 02:45:49;;;;;;;10.30;6.18;;;22.70;59.80;;;;;;5071515;28;20032;-58
2023/06/19 02:48:15;;;;;;;8.15;6.22;;;22.70;59.80;;;;;;5071917;28;20021;-58
2023/06/19 02:50:40;;;;;;;8.15;5.88;;;22.70;59.70;;;;;;5071723;28;20028;-58
2023/06/19 02:53:06;;;;;;;11.23;5.93;;;22.70;59.80;;;;;;5071750;28;20391;-57
2023/06/19 02:55:32;;;;;;;7.70;5.72;;;22.70;59.70;;;;;;5071298;28;20506;-58
2023/06/19 02:57:58;;;;;;;9.00;6.05;;;22.70;59.60;;;;;;5071069;28;20043;-59
2023/06/19 03:00:24;;;;;;;7.55;5.88;;;22.70;59.70;;;;;;5070494;28;20567;-59
2023/06/19 03:02:50;;;;;;;10.32;6.57;;;22.70;59.70;;;;;;5071837;28;20028;-57
2023/06/19 03:05:16;;;;;;;7.57;5.85;;;22.70;59.60;;;;;;5071832;28;20056;-58
2023/06/19 03:07:43;;;;;;;10.88;6.50;;;22.80;59.60;;;;;;5058105;28;20028;-57
2023/06/19 03:10:09;;;;;;;8.70;6.00;;;22.70;59.60;;;;;;5076967;28;20029;-58
2023/06/19 03:12:34;;;;;;;6.78;5.47;;;22.70;59.50;;;;;;5076530;28;20108;-57
2023/06/19 03:15:01;;;;;;;8.05;6.20;;;22.80;59.60;;;;;;5069843;28;20032;-57
2023/06/19 03:17:30;;;;;;;8.18;6.18;;;22.80;59.60;;;;;;5053739;28;20118;-58
2023/06/19 03:19:56;;;;;;;7.95;6.10;;;22.70;59.60;;;;;;5053630;28;20068;-58
2023/06/19 03:22:22;;;;;;;7.47;6.13;;;22.70;59.60;;;;;;5053651;28;20032;-55
2023/06/19 03:24:49;;;;;;;7.45;5.90;;;22.70;59.60;;;;;;5069964;28;20028;-58
2023/06/19 03:27:19;;;;;;;9.63;6.38;;;22.70;59.60;;;;;;5053652;28;20024;-58
2023/06/19 03:29:44;;;;;;;11.48;6.18;;;22.70;59.70;;;;;;5053482;28;20104;-58
2023/06/19 03:32:15;;;;;;;8.60;6.43;;;22.70;59.60;;;;;;5070293;28;20029;-59
2023/06/19 03:34:40;;;;;;;7.53;6.32;;;22.70;59.70;;;;;;5053353;28;20078;-57
2023/06/19 03:37:08;;;;;;;7.72;5.78;;;22.70;59.70;;;;;;5070063;28;20449;-57
2023/06/19 03:39:35;;;;;;;7.75;6.45;;;22.70;59.60;;;;;;5053448;28;20510;-59
2023/06/19 03:42:07;;;;;;;6.80;5.60;;;22.70;59.70;;;;;;5070043;28;20024;-57
2023/06/19 03:44:34;;;;;;;7.55;5.80;;;22.70;59.60;;;;;;5069665;28;20150;-58
2023/06/19 03:47:00;;;;;;;8.15;5.85;;;22.70;59.70;;;;;;5053351;28;20028;-58
2023/06/19 03:49:26;;;;;;;7.80;5.80;;;22.70;59.70;;;;;;5069928;28;20032;-58
2023/06/19 03:51:56;;;;;;;10.02;6.85;;;22.70;59.70;;;;;;5071201;28;20024;-58
2023/06/19 03:54:24;;;;;;;7.22;5.72;;;22.70;59.60;;;;;;5069721;28;20084;-59
2023/06/19 03:56:51;;;;;;;7.30;5.70;;;22.70;59.60;;;;;;5070893;28;20033;-58
2023/06/19 03:59:16;;;;;;;7.90;6.18;;;22.70;59.60;;;;;;5071119;28;20107;-57
2023/06/19 04:01:42;;;;;;;8.60;6.18;;;22.70;59.60;;;;;;5036539;28;20547;-58
2023/06/19 04:04:09;;;;;;;7.25;5.63;;;22.70;59.60;;;;;;5053254;28;20059;-59
2023/06/19 04:06:35;;;;;;;7.90;5.95;;;22.70;59.60;;;;;;5069509;28;20028;-59
2023/06/19 04:09:01;;;;;;;10.18;5.82;;;22.70;59.60;;;;;;5071039;28;20025;-58
2023/06/19 04:11:26;;;;;;;8.98;6.43;;;22.70;59.60;;;;;;5071418;28;20063;-58
2023/06/19 04:13:52;;;;;;;9.00;6.13;;;22.70;59.50;;;;;;5074767;28;20028;-57
2023/06/19 04:16:18;;;;;;;8.60;6.10;;;22.70;59.50;;;;;;5073166;28;20028;-57
2023/06/19 04:18:44;;;;;;;11.23;6.70;;;22.70;59.50;;;;;;5056766;28;20113;-59
2023/06/19 04:21:10;;;;;;;8.52;5.90;;;22.70;59.50;;;;;;5073420;28;20522;-56
2023/06/19 04:23:36;;;;;;;8.75;6.07;;;22.70;59.40;;;;;;5073322;28;20029;-59
2023/06/19 04:26:02;;;;;;;8.10;6.25;;;22.70;59.40;;;;;;5072865;28;20028;-58
2023/06/19 04:28:27;;;;;;;8.57;6.30;;;22.70;59.50;;;;;;5056617;28;20025;-56
2023/06/19 04:30:59;;;;;;;8.57;5.93;;;22.70;59.40;;;;;;5074365;28;20032;-58
2023/06/19 04:33:27;;;;;;;8.60;6.07;;;22.70;59.30;;;;;;5074253;28;20040;-59
2023/06/19 04:35:52;;;;;;;9.88;6.00;;;22.70;59.20;;;;;;5073904;28;20052;-58
2023/06/19 04:38:18;;;;;;;9.05;6.28;;;22.80;59.30;;;;;;5074297;28;20024;-54
2023/06/19 04:40:44;;;;;;;9.50;6.40;;;22.80;59.30;;;;;;5074293;28;20319;-56
2023/06/19 04:43:10;;;;;;;8.00;6.43;;;22.70;59.20;;;;;;5074288;28;20025;-56
2023/06/19 04:45:36;;;;;;;8.57;6.05;;;22.70;59.20;;;;;;5073899;28;20068;-58
2023/06/19 04:48:03;;;;;;;6.90;5.55;;;22.70;59.90;;;;;;5074060;28;20111;-55
2023/06/19 04:50:28;;;;;;;7.18;5.90;;;22.80;59.30;;;;;;5074058;28;20075;-58
2023/06/19 04:52:54;;;;;;;9.82;6.30;;;22.70;59.20;;;;;;5073959;28;20514;-53
2023/06/19 04:55:21;;;;;;;8.27;6.25;;;22.80;59.30;;;;;;5073454;28;20040;-59
2023/06/19 04:57:46;;;;;;;8.07;6.15;;;22.80;59.30;;;;;;5073858;28;20044;-56
2023/06/19 05:00:14;;;;;;;7.18;5.57;;;22.80;59.30;;;;;;5073870;28;20032;-58
2023/06/19 05:02:43;;;;;;;8.40;6.30;;;22.70;59.30;;;;;;5073851;28;20032;-58
2023/06/19 05:05:09;;;;;;;10.37;6.27;;;22.80;59.30;;;;;;5055680;28;20025;-58
2023/06/19 05:07:35;;;;;;;8.05;6.25;;;22.80;59.40;;;;;;5073695;28;20025;-58
2023/06/19 05:10:01;;;;;;;8.73;6.20;;;22.70;59.30;;;;;;5073792;28;20029;-58
2023/06/19 05:12:26;;;;;;;7.70;6.10;;;22.70;59.40;;;;;;5073672;28;20446;-58
2023/06/19 05:14:52;;;;;;;12.57;6.97;;;22.80;59.40;;;;;;5073354;28;20510;-58
2023/06/19 05:17:18;;;;;;;8.57;6.30;;;22.70;59.50;;;;;;5073429;28;20066;-56
2023/06/19 05:19:44;;;;;;;8.55;6.20;;;22.70;59.40;;;;;;5073601;28;20112;-57
2023/06/19 05:22:10;;;;;;;8.02;6.20;;;22.70;59.40;;;;;;5073337;28;20028;-58
2023/06/19 05:24:35;;;;;;;8.88;6.72;;;22.70;59.40;;;;;;5073109;28;20032;-59
2023/06/19 05:27:01;;;;;;;7.97;6.18;;;22.80;59.50;;;;;;5073461;28;20551;-58
2023/06/19 05:29:27;;;;;;;8.25;6.57;;;22.70;59.40;;;;;;5073644;28;20024;-57
2023/06/19 05:31:53;;;;;;;9.32;6.70;;;22.70;59.50;;;;;;5073302;28;20024;-60
2023/06/19 05:34:19;;;;;;;10.43;6.30;;;22.70;59.40;;;;;;5073155;28;20024;-60
2023/06/19 05:36:46;;;;;;;9.20;6.45;;;22.70;59.40;;;;;;5073009;28;20032;-60
2023/06/19 05:39:13;;;;;;;8.82;6.50;;;22.70;59.40;;;;;;5073238;28;20035;-60
2023/06/19 05:41:39;;;;;;;9.05;5.93;;;22.70;59.50;;;;;;5073386;28;20024;-59
2023/06/19 05:44:05;;;;;;;8.30;6.10;;;22.70;59.40;;;;;;5073068;28;20040;-60
2023/06/19 05:46:30;;;;;;;9.88;6.90;;;22.70;59.50;;;;;;5071514;28;20116;-60
2023/06/19 05:48:56;;;;;;;10.57;6.47;;;22.70;59.50;;;;;;5073286;28;20031;-59
2023/06/19 05:51:22;;;;;;;17.05;9.05;;;22.70;60.40;;;;;;5072861;28;20381;-59
2023/06/19 05:53:49;;;;;;;14.82;11.02;;;22.60;60.40;;;;;;5072851;28;20368;-59
2023/06/19 05:56:16;;;;;;;17.02;14.02;;;22.50;61.00;;;;;;5072348;28;20037;-57
2023/06/19 05:58:41;;;;;;;19.65;13.60;;;22.40;60.90;;;;;;5072782;28;20025;-55
2023/06/19 06:01:07;;;;;;;24.27;13.05;;;22.40;61.10;;;;;;5072672;28;20023;-57
2023/06/19 06:03:33;;;;;;;24.92;13.60;;;22.30;61.00;;;;;;5072598;28;20509;-56
2023/06/19 06:06:02;;;;;;;16.63;13.18;;;22.30;61.20;;;;;;5072132;28;20032;-57
2023/06/19 06:08:31;;;;;;;23.40;13.70;;;22.30;61.80;;;;;;5072641;28;20025;-59
2023/06/19 06:10:57;;;;;;;18.80;12.02;;;22.30;62.10;;;;;;5072455;28;20029;-58
2023/06/19 06:13:23;;;;;;;22.08;12.55;;;22.40;61.70;;;;;;5072387;28;20050;-58
2023/06/19 06:15:50;;;;;;;27.73;14.88;;;22.40;61.60;;;;;;5071925;28;20058;-58
2023/06/19 06:18:16;;;;;;;21.90;13.60;;;22.50;63.00;;;;;;5072110;28;20039;-58
2023/06/19 06:20:42;;;;;;;18.40;13.18;;;22.50;61.80;;;;;;5069703;28;20032;-59
2023/06/19 06:23:07;;;;;;;20.00;12.77;;;22.50;61.70;;;;;;5066745;28;20035;-57
2023/06/19 06:25:34;;;;;;;20.27;11.60;;;22.50;61.80;;;;;;5066078;28;20020;-58
2023/06/19 06:28:00;;;;;;;21.02;12.10;;;22.60;61.70;;;;;;5068280;28;20127;-57
2023/06/19 06:30:27;;;;;;;20.13;11.90;;;22.60;61.70;;;;;;5067755;28;20047;-58
2023/06/19 06:32:53;;;;;;;22.05;11.90;;;22.70;61.70;;;;;;5067561;28;20028;-59
2023/06/19 06:35:19;;;;;;;15.38;11.85;;;22.60;61.70;;;;;;5067389;28;20028;-59
2023/06/19 06:37:46;;;;;;;16.83;11.48;;;22.70;61.70;;;;;;5068223;28;20032;-59
2023/06/19 06:40:12;;;;;;;20.55;12.02;;;22.70;61.70;;;;;;5068182;28;20024;-53
2023/06/19 06:42:38;;;;;;;15.25;12.10;;;22.70;61.80;;;;;;5069129;28;20032;-53
2023/06/19 06:45:08;;;;;;;16.48;12.50;;;22.70;61.70;;;;;;5050743;28;20101;-55
2023/06/19 06:47:37;;;;;;;19.85;11.52;;;22.70;61.70;;;;;;5066959;28;20400;-53
2023/06/19 06:50:03;;;;;;;19.77;12.50;;;22.70;61.70;;;;;;5067845;28;20029;-56
2023/06/19 06:52:30;;;;;;;17.70;12.68;;;22.70;61.80;;;;;;5067487;28;20020;-58
2023/06/19 06:54:56;;;;;;;15.35;11.95;;;22.70;61.80;;;;;;5064290;28;20487;-53
2023/06/19 06:57:21;;;;;;;17.02;12.40;;;22.70;61.70;;;;;;5066918;28;20040;-48
2023/06/19 06:59:47;;;;;;;15.35;12.00;;;22.70;61.70;;;;;;5067628;28;20483;-53
2023/06/19 07:02:13;;;;;;;16.33;12.13;;;22.70;61.70;;;;;;5067385;28;20067;-53
2023/06/19 07:04:39;;;;;;;20.10;12.23;;;22.70;61.70;;;;;;5042979;28;20078;-56
2023/06/19 07:07:05;;;;;;;17.17;11.38;;;22.70;61.80;;;;;;5065874;28;20025;-54
2023/06/19 07:09:31;;;;;;;17.35;12.00;;;22.70;61.80;;;;;;5065900;28;20387;-55
2023/06/19 07:11:57;;;;;;;17.63;11.45;;;22.70;61.60;;;;;;5047347;28;20108;-54
2023/06/19 07:14:23;;;;;;;15.82;11.63;;;22.70;61.80;;;;;;5061761;28;20039;-55
2023/06/19 07:16:50;;;;;;;19.33;11.88;;;22.70;61.70;;;;;;5083992;23;20049;-52
2023/06/19 07:19:16;;;;;;;20.02;11.48;;;22.70;61.70;;;;;;5064159;28;20479;-57
2023/06/19 07:21:42;;;;;;;17.70;12.07;;;22.70;61.50;;;;;;5065621;28;20035;-51
2023/06/19 07:24:08;;;;;;;16.83;11.40;;;22.70;61.70;;;;;;5062989;28;20078;-47
2023/06/19 07:26:34;;;;;;;18.27;11.93;;;22.70;61.60;;;;;;5052322;28;20040;-52
2023/06/19 07:28:59;;;;;;;19.73;12.27;;;22.70;61.60;;;;;;5045599;28;20025;-47
2023/06/19 07:31:25;;;;;;;16.58;11.48;;;22.70;61.70;;;;;;5027372;28;20492;-50
2023/06/19 07:33:51;;;;;;;20.45;12.18;;;22.70;61.90;;;;;;5045441;28;20432;-52
2023/06/19 07:36:17;;;;;;;39.83;12.00;;;22.70;61.60;;;;;;5044517;28;20060;-54
2023/06/19 07:38:43;;;;;;;34.80;12.00;;;22.70;61.60;;;;;;5045588;28;20400;-51
2023/06/19 07:41:10;;;;;;;25.05;12.00;;;22.80;61.60;;;;;;5044392;28;20021;-50
2023/06/19 07:43:37;;;;;;;26.75;11.93;;;22.70;61.50;;;;;;5045325;28;20035;-46
2023/06/19 07:46:03;;;;;;;20.27;11.40;;;22.80;61.60;;;;;;5046189;28;20029;-52
2023/06/19 07:48:29;;;;;;;24.40;12.10;;;22.80;61.50;;;;;;5048693;28;20040;-56
2023/06/19 07:50:55;;;;;;;25.52;11.68;;;22.80;61.80;;;;;;5049362;28;20029;-50
2023/06/19 07:53:21;;;;;;;23.95;12.30;;;22.80;61.60;;;;;;5048782;28;20099;-52
2023/06/19 07:55:47;;;;;;;16.10;11.30;;;22.80;61.40;;;;;;5048728;28;20611;-51
2023/06/19 07:58:12;;;;;;;21.52;11.75;;;22.80;61.30;;;;;;5048907;28;20033;-48
2023/06/19 08:00:38;;;;;;;18.15;11.63;;;22.80;61.20;;;;;;5048490;28;20567;-49
2023/06/19 08:03:05;;;;;;;19.67;10.60;;;22.80;62.00;;;;;;5049493;28;20480;-49
2023/06/19 08:05:31;;;;;;;23.67;10.98;;;22.80;61.50;;;;;;5049682;28;20037;-48
2023/06/19 08:07:58;;;;;;;18.30;11.20;;;22.80;61.30;;;;;;5049739;28;20091;-51
2023/06/19 08:10:24;;;;;;;21.35;10.13;;;22.80;61.30;;;;;;5049878;28;20559;-51
2023/06/19 08:12:50;;;;;;;13.63;10.38;;;22.90;61.30;;;;;;5049423;28;20128;-51
2023/06/19 08:15:16;;;;;;;19.58;10.80;;;22.90;61.30;;;;;;5048508;28;20419;-52
2023/06/19 08:17:42;;;;;;;15.60;10.30;;;22.90;61.30;;;;;;5048786;28;20029;-49
2023/06/19 08:20:09;;;;;;;14.50;10.13;;;22.90;61.30;;;;;;5048863;28;20081;-51
2023/06/19 08:22:35;;;;;;;23.02;10.23;;;22.90;61.50;;;;;;5049033;28;20028;-46
2023/06/19 08:25:07;;;;;;;24.55;10.73;;;22.90;61.40;;;;;;5048269;28;20111;-52
2023/06/19 08:27:33;;;;;;;18.98;9.77;;;22.90;61.30;;;;;;5045966;28;20032;-48
2023/06/19 08:29:58;;;;;;;16.90;10.15;;;22.90;61.30;;;;;;5047424;28;20491;-46
2023/06/19 08:32:25;;;;;;;23.40;10.18;;;22.90;61.60;;;;;;5047357;28;20180;-46
2023/06/19 08:34:51;;;;;;;15.88;10.13;;;22.80;61.40;;;;;;5047134;28;20033;-52
2023/06/19 08:37:18;;;;;;;16.23;10.10;;;22.90;61.40;;;;;;5048418;28;20028;-46
2023/06/19 08:39:44;;;;;;;16.80;9.75;;;22.90;61.40;;;;;;5049766;28;20108;-50
2023/06/19 08:42:10;;;;;;;18.85;9.70;;;22.80;61.30;;;;;;5050328;28;20120;-51
2023/06/19 08:44:37;;;;;;;17.75;9.73;;;22.90;61.30;;;;;;5047138;28;20028;-51
2023/06/19 08:47:03;;;;;;;14.27;10.02;;;22.80;61.30;;;;;;5049430;28;20491;-55
2023/06/19 08:49:36;;;;;;;16.80;10.13;;;22.90;61.20;;;;;;5049483;28;20510;-49
2023/06/19 08:52:03;;;;;;;15.80;9.55;;;22.80;61.30;;;;;;5050206;28;20492;-51
2023/06/19 08:54:29;;;;;;;14.13;9.68;;;22.90;61.30;;;;;;5049100;28;20024;-50
2023/06/19 08:56:56;;;;;;;15.73;9.07;;;22.90;61.30;;;;;;5049017;28;20076;-47
2023/06/19 08:59:21;;;;;;;14.77;9.43;;;22.90;61.30;;;;;;5049569;28;20036;-48
2023/06/19 09:01:54;;;;;;;16.55;9.43;;;22.90;61.20;;;;;;5049326;28;20029;-47
2023/06/19 09:04:27;;;;;;;19.05;9.13;;;22.90;61.20;;;;;;5032029;28;20071;-46
2023/06/19 09:06:57;;;;;;;14.27;9.40;;;22.90;61.70;;;;;;5049702;28;20021;-49
2023/06/19 09:09:25;;;;;;;12.40;9.25;;;22.90;61.20;;;;;;5049612;28;20021;-49
2023/06/19 09:11:59;;;;;;;16.13;9.07;;;22.90;61.20;;;;;;5049905;28;20025;-55
2023/06/19 09:14:35;;;;;;;15.95;9.70;;;22.90;61.80;;;;;;5049196;28;20082;-48
2023/06/19 09:17:06;;;;;;;14.68;9.80;;;22.90;61.10;;;;;;5049098;28;20215;-53
2023/06/19 09:19:36;;;;;;;14.77;9.00;;;22.90;61.20;;;;;;5049810;28;20565;-49
2023/06/19 09:22:04;;;;;;;13.07;9.25;;;22.90;61.80;;;;;;5049313;28;20534;-55
2023/06/19 09:24:38;;;;;;;14.35;9.48;;;22.90;61.20;;;;;;5049036;28;20064;-52
2023/06/19 09:27:09;;;;;;;14.68;8.60;;;22.90;61.10;;;;;;5049852;28;20435;-52
2023/06/19 09:29:40;;;;;;;13.55;8.57;;;22.90;61.10;;;;;;5049447;28;20409;-55
2023/06/19 09:32:21;;;;;;;14.95;8.63;;;22.90;61.00;;;;;;5049465;28;20029;-53
2023/06/19 09:34:50;;;;;;;14.27;9.07;;;22.90;61.00;;;;;;5031428;28;20029;-55
2023/06/19 09:37:21;;;;;;;16.27;8.77;;;22.90;61.10;;;;;;5049141;28;20028;-52
2023/06/19 09:39:51;;;;;;;13.82;9.00;;;22.90;61.00;;;;;;5049127;28;20031;-56
2023/06/19 09:42:19;;;;;;;13.95;8.35;;;22.90;61.70;;;;;;5049113;28;20500;-54
2023/06/19 09:44:48;;;;;;;11.73;8.25;;;22.90;61.00;;;;;;5049056;28;20044;-53
2023/06/19 09:47:24;;;;;;;11.88;8.75;;;22.90;61.00;;;;;;5048804;28;20021;-52
2023/06/19 09:49:55;;;;;;;15.98;9.02;;;22.90;60.90;;;;;;5049048;28;20025;-48
2023/06/19 09:52:22;;;;;;;12.20;9.00;;;22.90;61.00;;;;;;5048897;28;20518;-50
2023/06/19 09:54:51;;;;;;;15.20;9.38;;;22.90;60.90;;;;;;5048717;28;20404;-52
2023/06/19 09:57:17;;;;;;;14.55;9.25;;;22.90;60.90;;;;;;5048658;28;20051;-53
2023/06/19 09:59:45;;;;;;;12.85;9.15;;;22.90;60.90;;;;;;5048694;28;20108;-49
2023/06/19 10:02:11;;;;;;;15.88;9.93;;;22.90;60.90;;;;;;5048777;28;20435;-53
2023/06/19 10:04:46;;;;;;;16.13;9.43;;;22.90;61.60;;;;;;5048367;28;20075;-55
2023/06/19 10:07:22;;;;;;;13.65;9.75;;;22.90;61.50;;;;;;5030644;28;20573;-53
2023/06/19 10:10:01;;;;;;;24.88;10.25;;;22.90;61.80;;;;;;5047748;28;20033;-52
2023/06/19 10:12:42;;;;;;;18.00;10.40;;;22.90;61.60;;;;;;5047926;28;20204;-54
2023/06/19 10:15:13;;;;;;;16.60;9.63;;;22.90;62.00;;;;;;5048124;28;20083;-48
2023/06/19 10:17:47;;;;;;;17.70;9.07;;;22.90;61.90;;;;;;5048366;28;20036;-51
2023/06/19 10:20:21;;;;;;;21.30;9.55;;;22.90;62.20;;;;;;5048472;28;20178;-47
2023/06/19 10:22:57;;;;;;;19.00;9.73;;;22.90;62.00;;;;;;5048132;28;20036;-52
2023/06/19 10:25:24;;;;;;;19.02;8.98;;;22.90;62.10;;;;;;5047940;28;20116;-51
2023/06/19 10:27:52;;;;;;;14.73;9.05;;;22.90;61.90;;;;;;5048296;28;20029;-54
2023/06/19 10:30:19;;;;;;;19.52;9.70;;;22.90;61.90;;;;;;5048315;28;20234;-54
2023/06/19 10:32:47;;;;;;;17.23;9.32;;;22.90;62.10;;;;;;5030681;28;20082;-52
2023/06/19 10:35:13;;;;;;;15.82;8.95;;;22.90;62.00;;;;;;5047887;28;20025;-52
2023/06/19 10:37:40;;;;;;;13.73;9.52;;;22.90;62.30;;;;;;5048697;28;20527;-48
2023/06/19 10:40:12;;;;;;;20.65;9.18;;;22.90;62.70;;;;;;5029655;28;20044;-49
2023/06/19 10:42:39;;;;;;;15.95;8.82;;;22.90;62.80;;;;;;5048320;28;20081;-48
2023/06/19 10:45:08;;;;;;;13.55;9.10;;;22.90;63.50;;;;;;5044717;28;20122;-52
2023/06/19 10:47:35;;;;;;;20.40;9.10;;;22.90;62.90;;;;;;5042425;28;20047;-55
2023/06/19 10:50:02;;;;;;;13.27;8.95;;;22.90;62.90;;;;;;5045761;28;20025;-53
2023/06/19 10:52:29;;;;;;;13.57;8.90;;;22.90;62.80;;;;;;5047127;28;20146;-54
2023/06/19 10:54:56;;;;;;;16.00;9.55;;;22.90;62.70;;;;;;5045936;28;20032;-53
2023/06/19 11:21:38;;;;;;;17.90;10.70;;;23.00;63.00;;;;;;5073516;27;20482;-49
2023/06/19 11:24:13;;;;;;;14.88;9.45;;;23.10;62.80;;;;;;5026762;28;20101;-47
2023/06/19 11:26:43;;;;;;;18.52;8.57;;;23.20;62.40;;;;;;5025782;28;20032;-52
2023/06/19 11:29:20;;;;;;;21.13;9.20;;;23.10;62.20;;;;;;5026687;28;20029;-46
2023/06/19 11:31:47;;;;;;;19.98;8.55;;;23.10;62.50;;;;;;5045570;23;21191;-44
2023/06/19 11:34:14;;;;;;;14.13;9.00;;;23.10;62.50;;;;;;5023103;28;20030;-42
2023/06/19 11:36:42;;;;;;;11.93;8.30;;;23.10;62.60;;;;;;5022126;28;20030;-42
2023/06/19 11:39:13;;;;;;;13.13;9.15;;;23.10;62.60;;;;;;5008610;28;20030;-43
2023/06/19 11:41:41;;;;;;;14.27;8.80;;;23.10;62.60;;;;;;5000483;28;20045;-42
2023/06/19 11:44:11;;;;;;;11.95;8.57;;;23.10;62.70;;;;;;5024272;28;20040;-45
2023/06/19 11:46:37;;;;;;;16.75;9.32;;;23.00;62.60;;;;;;5024368;28;20022;-42
2023/06/19 11:49:14;;;;;;;13.20;8.48;;;23.00;62.60;;;;;;5024472;28;20390;-48
2023/06/19 11:51:40;;;;;;;17.20;8.60;;;23.00;62.60;;;;;;5006493;28;20025;-43
2023/06/19 11:54:08;;;;;;;16.15;9.07;;;23.10;62.50;;;;;;5006690;28;20030;-42
2023/06/19 11:56:40;;;;;;;15.57;8.98;;;23.10;62.70;;;;;;5006858;28;20030;-47
2023/06/19 11:59:07;;;;;;;13.85;9.48;;;23.10;62.70;;;;;;5024310;28;20278;-45
2023/06/19 12:01:35;;;;;;;19.48;10.60;;;23.20;62.50;;;;;;5024113;28;20026;-49
2023/06/19 12:04:02;;;;;;;19.27;11.13;;;23.20;63.50;;;;;;5006853;28;20705;-44
2023/06/19 12:06:29;;;;;;;20.30;12.05;;;23.20;63.10;;;;;;5014252;28;20030;-44
2023/06/19 12:08:55;;;;;;;18.80;11.70;;;23.20;62.80;;;;;;5003695;28;20072;-47
2023/06/19 12:11:21;;;;;;;17.58;12.02;;;23.20;63.90;;;;;;5003642;28;20030;-43
2023/06/19 12:13:47;;;;;;;16.67;10.85;;;23.20;63.30;;;;;;5001078;28;20049;-44
2023/06/19 12:16:14;;;;;;;14.20;10.57;;;23.20;62.60;;;;;;5003508;28;20034;-45
2023/06/19 12:18:40;;;;;;;15.48;10.75;;;23.20;62.80;;;;;;5004214;28;20109;-43
2023/06/19 12:21:06;;;;;;;15.35;10.93;;;23.20;62.20;;;;;;4997112;28;20022;-50
2023/06/19 12:23:32;;;;;;;15.52;10.55;;;23.30;62.10;;;;;;4987292;28;20046;-45
2023/06/19 12:25:58;;;;;;;14.40;10.45;;;23.30;62.40;;;;;;4990777;28;20054;-42
2023/06/19 12:28:25;;;;;;;19.42;10.77;;;23.30;62.80;;;;;;4990142;28;20050;-45
2023/06/19 12:30:53;;;;;;;13.52;9.85;;;23.30;63.80;;;;;;4989329;28;20441;-45
2023/06/19 12:33:22;;;;;;;16.60;9.75;;;23.20;64.00;;;;;;4989894;28;20421;-43
2023/06/19 12:35:49;;;;;;;16.70;10.18;;;23.20;64.50;;;;;;4990279;28;20080;-49
2023/06/19 12:38:15;;;;;;;18.45;10.00;;;23.20;64.40;;;;;;4988867;28;20036;-46
2023/06/19 12:40:41;;;;;;;14.13;9.88;;;23.30;64.70;;;;;;4990179;28;20030;-45
2023/06/19 12:43:07;;;;;;;21.92;10.13;;;23.20;64.70;;;;;;4989672;28;20511;-48
2023/06/19 12:45:32;;;;;;;13.27;9.63;;;23.20;64.60;;;;;;4989617;28;20045;-47
2023/06/19 12:47:58;;;;;;;13.50;9.73;;;23.20;64.40;;;;;;4989696;28;20069;-51
2023/06/19 12:50:24;;;;;;;12.48;8.98;;;23.20;64.40;;;;;;4989247;28;20030;-46
2023/06/19 12:52:50;;;;;;;15.35;10.15;;;23.20;64.20;;;;;;4989610;28;20030;-47
2023/06/19 12:55:16;;;;;;;12.55;9.73;;;23.20;64.10;;;;;;5005260;28;20021;-45
2023/06/19 12:57:42;;;;;;;11.98;8.63;;;23.20;64.20;;;;;;4993919;28;20470;-45
2023/06/19 13:00:11;;;;;;;13.93;9.45;;;23.20;64.20;;;;;;4988752;28;20035;-48
2023/06/19 13:02:42;;;;;;;12.63;8.82;;;23.20;64.20;;;;;;4988975;28;20563;-47